createdAt,value
2017-06-29T00:00:01.927Z,18.6
2017-06-29T00:00:06.240Z,18.62
2017-06-29T00:00:10.550Z,18.72
2017-06-29T00:00:15.029Z,18.65
2017-06-29T00:00:19.467Z,18.69
2017-06-29T00:00:23.890Z,18.68
2017-06-29T00:00:28.316Z,18.69
2017-06-29T00:00:32.746Z,18.71
2017-06-29T00:00:37.052Z,18.72
2017-06-29T00:00:41.364Z,18.75
2017-06-29T00:00:45.795Z,18.71
2017-06-29T00:00:50.221Z,18.69
2017-06-29T00:00:54.647Z,18.64
2017-06-29T00:00:59.108Z,18.72
2017-06-29T00:01:03.535Z,18.68
2017-06-29T00:01:07.959Z,18.66
2017-06-29T00:01:12.378Z,18.59
2017-06-29T00:01:16.806Z,18.71
2017-06-29T00:01:21.237Z,18.68
2017-06-29T00:01:25.538Z,18.64
2017-06-29T00:01:29.848Z,18.57
2017-06-29T00:01:34.156Z,18.66
2017-06-29T00:01:38.589Z,18.6
2017-06-29T00:01:42.904Z,18.54
2017-06-29T00:01:47.336Z,18.6
2017-06-29T00:01:51.759Z,18.57
2017-06-29T00:01:56.073Z,18.64
2017-06-29T00:02:00.517Z,18.59
2017-06-29T00:02:04.940Z,18.59
2017-06-29T00:02:09.244Z,18.64
2017-06-29T00:02:13.667Z,18.6
2017-06-29T00:02:18.092Z,18.62
2017-06-29T00:02:22.522Z,18.6
2017-06-29T00:02:26.835Z,18.57
2017-06-29T00:02:31.252Z,18.57
2017-06-29T00:02:35.558Z,18.57
2017-06-29T00:02:39.990Z,18.59
2017-06-29T00:02:44.420Z,18.6
2017-06-29T00:02:48.738Z,18.65
2017-06-29T00:02:53.171Z,18.57
2017-06-29T00:02:57.607Z,18.57
2017-06-29T00:03:02.047Z,18.64
2017-06-29T00:03:06.468Z,18.57
2017-06-29T00:03:10.776Z,18.65
2017-06-29T00:03:15.198Z,18.62
2017-06-29T00:03:19.391Z,18.6
2017-06-29T00:03:23.826Z,18.64
2017-06-29T00:03:28.258Z,18.6
2017-06-29T00:03:32.686Z,18.6
2017-06-29T00:03:36.990Z,18.54
2017-06-29T00:03:41.426Z,18.6
2017-06-29T00:03:45.793Z,18.6
2017-06-29T00:03:50.217Z,18.6
2017-06-29T00:03:54.525Z,18.51
2017-06-29T00:03:58.834Z,18.57
2017-06-29T00:04:03.522Z,18.59
2017-06-29T00:04:07.834Z,18.64
2017-06-29T00:04:12.257Z,18.54
2017-06-29T00:04:16.682Z,18.57
2017-06-29T00:04:21.113Z,18.57
2017-06-29T00:04:25.569Z,18.54
2017-06-29T00:04:29.997Z,18.57
2017-06-29T00:04:34.302Z,18.56
2017-06-29T00:04:38.613Z,18.56
2017-06-29T00:04:43.085Z,18.62
2017-06-29T00:04:47.505Z,18.54
2017-06-29T00:04:51.812Z,18.53
2017-06-29T00:04:56.240Z,18.53
2017-06-29T00:05:00.673Z,18.53
2017-06-29T00:05:05.155Z,18.53
2017-06-29T00:05:09.583Z,18.46
2017-06-29T00:05:14.024Z,18.5
2017-06-29T00:05:18.449Z,18.53
2017-06-29T00:05:22.884Z,18.5
2017-06-29T00:05:27.202Z,18.5
2017-06-29T00:05:31.626Z,18.51
2017-06-29T00:05:35.704Z,18.51
2017-06-29T00:05:40.140Z,18.49
2017-06-29T00:05:44.615Z,18.46
2017-06-29T00:05:49.043Z,18.41
2017-06-29T00:05:53.466Z,18.56
2017-06-29T00:05:57.771Z,18.5
2017-06-29T00:06:02.448Z,18.5
2017-06-29T00:06:06.795Z,18.47
2017-06-29T00:06:11.120Z,18.47
2017-06-29T00:06:15.545Z,18.54
2017-06-29T00:06:19.971Z,18.36
2017-06-29T00:06:24.400Z,18.47
2017-06-29T00:06:28.711Z,18.42
2017-06-29T00:06:33.129Z,18.42
2017-06-29T00:06:37.551Z,18.44
2017-06-29T00:06:41.985Z,18.39
2017-06-29T00:06:46.412Z,18.41
2017-06-29T00:06:50.719Z,18.47
2017-06-29T00:06:55.146Z,18.47
2017-06-29T00:06:59.569Z,18.49
2017-06-29T00:07:03.880Z,18.44
2017-06-29T00:07:08.350Z,18.44
2017-06-29T00:07:12.776Z,18.41
2017-06-29T00:07:17.200Z,18.41
2017-06-29T00:07:21.624Z,18.39
2017-06-29T00:07:25.931Z,18.39
2017-06-29T00:07:30.241Z,18.46
2017-06-29T00:07:34.669Z,18.39
2017-06-29T00:07:38.984Z,18.44
2017-06-29T00:07:43.294Z,18.39
2017-06-29T00:07:47.735Z,18.36
2017-06-29T00:07:52.215Z,18.42
2017-06-29T00:07:56.644Z,18.39
2017-06-29T00:08:01.078Z,18.39
2017-06-29T00:08:05.660Z,18.39
2017-06-29T00:08:10.092Z,18.31
2017-06-29T00:08:14.515Z,18.38
2017-06-29T00:08:18.949Z,18.35
2017-06-29T00:08:23.138Z,18.35
2017-06-29T00:08:27.580Z,18.31
2017-06-29T00:08:32.003Z,18.36
2017-06-29T00:08:36.433Z,18.38
2017-06-29T00:08:40.856Z,18.32
2017-06-29T00:08:45.285Z,18.29
2017-06-29T00:08:49.603Z,18.34
2017-06-29T00:08:54.036Z,18.35
2017-06-29T00:08:58.348Z,18.36
2017-06-29T00:09:02.775Z,18.35
2017-06-29T00:09:07.198Z,18.34
2017-06-29T00:09:11.639Z,18.34
2017-06-29T00:09:16.065Z,18.32
2017-06-29T00:09:20.486Z,18.32
2017-06-29T00:09:24.786Z,18.31
2017-06-29T00:09:29.101Z,18.32
2017-06-29T00:09:33.445Z,18.31
2017-06-29T00:09:37.868Z,18.35
2017-06-29T00:09:42.174Z,18.25
2017-06-29T00:09:46.606Z,18.34
2017-06-29T00:09:51.033Z,18.29
2017-06-29T00:09:55.498Z,18.2
2017-06-29T00:09:59.807Z,18.34
2017-06-29T00:10:04.483Z,18.31
2017-06-29T00:10:08.788Z,18.35
2017-06-29T00:10:13.217Z,18.28
2017-06-29T00:10:17.525Z,18.34
2017-06-29T00:10:21.952Z,18.23
2017-06-29T00:10:26.376Z,18.32
2017-06-29T00:10:30.802Z,18.26
2017-06-29T00:10:35.231Z,18.36
2017-06-29T00:10:39.654Z,18.32
2017-06-29T00:10:43.846Z,18.23
2017-06-29T00:10:48.266Z,18.23
2017-06-29T00:10:52.694Z,18.28
2017-06-29T00:10:57.162Z,18.28
2017-06-29T00:11:01.588Z,18.29
2017-06-29T00:11:06.209Z,18.29
2017-06-29T00:11:10.637Z,18.29
2017-06-29T00:11:15.057Z,18.32
2017-06-29T00:11:19.256Z,18.21
2017-06-29T00:11:23.677Z,18.32
2017-06-29T00:11:27.990Z,18.28
2017-06-29T00:11:32.296Z,18.32
2017-06-29T00:11:36.716Z,18.28
2017-06-29T00:11:41.027Z,18.28
2017-06-29T00:11:45.094Z,18.29
2017-06-29T00:11:49.514Z,18.26
2017-06-29T00:11:53.940Z,18.34
2017-06-29T00:11:58.371Z,18.32
2017-06-29T00:12:02.799Z,18.23
2017-06-29T00:12:07.104Z,18.25
2017-06-29T00:12:11.289Z,18.25
2017-06-29T00:12:15.716Z,18.31
2017-06-29T00:12:20.146Z,18.31
2017-06-29T00:12:24.569Z,18.29
2017-06-29T00:12:28.998Z,18.31
2017-06-29T00:12:33.422Z,18.21
2017-06-29T00:12:37.851Z,18.26
2017-06-29T00:12:42.309Z,18.32
2017-06-29T00:12:46.620Z,18.23
2017-06-29T00:12:51.044Z,18.31
2017-06-29T00:12:55.480Z,18.2
2017-06-29T00:12:59.930Z,18.23
2017-06-29T00:13:04.465Z,18.25
2017-06-29T00:13:08.771Z,18.28
2017-06-29T00:13:13.198Z,18.28
2017-06-29T00:13:17.623Z,18.17
2017-06-29T00:13:22.069Z,18.25
2017-06-29T00:13:26.492Z,18.2
2017-06-29T00:13:30.911Z,18.21
2017-06-29T00:13:35.333Z,18.19
2017-06-29T00:13:39.645Z,18.2
2017-06-29T00:13:43.970Z,18.21
2017-06-29T00:13:48.399Z,18.17
2017-06-29T00:13:52.702Z,18.2
2017-06-29T00:13:57.016Z,18.19
2017-06-29T00:14:01.749Z,18.21
2017-06-29T00:14:05.942Z,18.19
2017-06-29T00:14:10.365Z,18.16
2017-06-29T00:14:14.795Z,18.19
2017-06-29T00:14:19.234Z,18.14
2017-06-29T00:14:23.667Z,18.14
2017-06-29T00:14:28.103Z,18.13
2017-06-29T00:14:32.534Z,18.13
2017-06-29T00:14:36.845Z,18.13
2017-06-29T00:14:41.283Z,18.17
2017-06-29T00:14:45.723Z,18.17
2017-06-29T00:14:50.025Z,18.19
2017-06-29T00:14:54.449Z,18.11
2017-06-29T00:14:58.756Z,18.07
2017-06-29T00:15:03.248Z,18.16
2017-06-29T00:15:07.564Z,18.1
2017-06-29T00:15:11.754Z,17.99
2017-06-29T00:15:16.181Z,18.09
2017-06-29T00:15:20.607Z,18.14
2017-06-29T00:15:25.032Z,18.05
2017-06-29T00:15:29.465Z,18.04
2017-06-29T00:15:33.883Z,18.09
2017-06-29T00:15:38.199Z,17.96
2017-06-29T00:15:42.627Z,18.04
2017-06-29T00:15:46.942Z,17.98
2017-06-29T00:15:51.406Z,17.96
2017-06-29T00:15:55.825Z,17.95
2017-06-29T00:16:00.132Z,17.96
2017-06-29T00:16:04.491Z,17.94
2017-06-29T00:16:08.799Z,17.96
2017-06-29T00:16:13.225Z,17.95
2017-06-29T00:16:17.657Z,17.87
2017-06-29T00:16:22.080Z,17.95
2017-06-29T00:16:26.505Z,17.87
2017-06-29T00:16:30.937Z,17.94
2017-06-29T00:16:35.365Z,17.89
2017-06-29T00:16:39.670Z,17.89
2017-06-29T00:16:44.091Z,17.86
2017-06-29T00:16:48.523Z,17.91
2017-06-29T00:16:52.847Z,17.8
2017-06-29T00:16:56.919Z,17.91
2017-06-29T00:17:01.347Z,17.83
2017-06-29T00:17:05.653Z,17.79
2017-06-29T00:17:10.087Z,17.81
2017-06-29T00:17:14.523Z,17.83
2017-06-29T00:17:18.951Z,17.77
2017-06-29T00:17:23.374Z,17.77
2017-06-29T00:17:27.797Z,17.74
2017-06-29T00:17:32.236Z,17.77
2017-06-29T00:17:36.661Z,17.81
2017-06-29T00:17:41.092Z,17.76
2017-06-29T00:17:45.408Z,17.79
2017-06-29T00:17:49.717Z,17.73
2017-06-29T00:17:53.929Z,17.71
2017-06-29T00:17:58.236Z,17.74
2017-06-29T00:18:02.596Z,17.73
2017-06-29T00:18:07.024Z,17.65
2017-06-29T00:18:11.333Z,17.74
2017-06-29T00:18:15.763Z,17.65
2017-06-29T00:18:20.083Z,17.63
2017-06-29T00:18:24.396Z,17.7
2017-06-29T00:18:28.822Z,17.63
2017-06-29T00:18:33.266Z,17.73
2017-06-29T00:18:37.710Z,17.63
2017-06-29T00:18:42.027Z,17.62
2017-06-29T00:18:46.453Z,17.65
2017-06-29T00:18:50.765Z,17.62
2017-06-29T00:18:55.192Z,17.65
2017-06-29T00:18:59.620Z,17.58
2017-06-29T00:19:04.125Z,17.53
2017-06-29T00:19:08.551Z,17.6
2017-06-29T00:19:12.987Z,17.63
2017-06-29T00:19:17.419Z,17.58
2017-06-29T00:19:21.854Z,17.6
2017-06-29T00:19:26.285Z,17.57
2017-06-29T00:19:30.728Z,17.55
2017-06-29T00:19:35.161Z,17.47
2017-06-29T00:19:39.626Z,17.45
2017-06-29T00:19:43.926Z,17.49
2017-06-29T00:19:47.996Z,17.43
2017-06-29T00:19:52.307Z,17.42
2017-06-29T00:19:56.732Z,17.49
2017-06-29T00:20:01.048Z,17.43
2017-06-29T00:20:05.451Z,17.45
2017-06-29T00:20:09.521Z,17.42
2017-06-29T00:20:13.947Z,17.42
2017-06-29T00:20:18.378Z,17.33
2017-06-29T00:20:22.805Z,17.33
2017-06-29T00:20:27.228Z,17.28
2017-06-29T00:20:31.648Z,17.38
2017-06-29T00:20:36.079Z,17.25
2017-06-29T00:20:40.508Z,17.32
2017-06-29T00:20:44.951Z,17.36
2017-06-29T00:20:49.257Z,17.28
2017-06-29T00:20:53.678Z,17.24
2017-06-29T00:20:58.152Z,17.25
2017-06-29T00:21:02.684Z,17.32
2017-06-29T00:21:06.992Z,17.22
2017-06-29T00:21:11.295Z,17.27
2017-06-29T00:21:15.730Z,17.21
2017-06-29T00:21:20.163Z,17.2
2017-06-29T00:21:24.463Z,17.25
2017-06-29T00:21:28.888Z,17.15
2017-06-29T00:21:33.307Z,17.18
2017-06-29T00:21:37.729Z,17.17
2017-06-29T00:21:42.159Z,17.22
2017-06-29T00:21:46.466Z,17.17
2017-06-29T00:21:50.893Z,17.1
2017-06-29T00:21:55.197Z,17.18
2017-06-29T00:21:59.510Z,17.2
2017-06-29T00:22:03.817Z,17.07
2017-06-29T00:22:08.239Z,17.05
2017-06-29T00:22:12.557Z,17.12
2017-06-29T00:22:16.862Z,17.05
2017-06-29T00:22:21.285Z,17.05
2017-06-29T00:22:25.707Z,17.09
2017-06-29T00:22:30.129Z,17.1
2017-06-29T00:22:34.555Z,17.1
2017-06-29T00:22:38.972Z,16.99
2017-06-29T00:22:43.285Z,16.99
2017-06-29T00:22:47.711Z,16.98
2017-06-29T00:22:52.135Z,17
2017-06-29T00:22:56.556Z,16.96
2017-06-29T00:23:00.984Z,17.03
2017-06-29T00:23:05.314Z,17
2017-06-29T00:23:09.384Z,16.96
2017-06-29T00:23:13.808Z,17.06
2017-06-29T00:23:18.237Z,17.02
2017-06-29T00:23:22.667Z,17.02
2017-06-29T00:23:27.095Z,17
2017-06-29T00:23:31.519Z,16.96
2017-06-29T00:23:35.944Z,17.09
2017-06-29T00:23:40.138Z,16.9
2017-06-29T00:23:44.569Z,16.95
2017-06-29T00:23:48.877Z,17.02
2017-06-29T00:23:53.302Z,16.95
2017-06-29T00:23:57.728Z,16.9
2017-06-29T00:24:02.052Z,16.82
2017-06-29T00:24:06.474Z,16.82
2017-06-29T00:24:10.906Z,16.88
2017-06-29T00:24:15.524Z,16.88
2017-06-29T00:24:19.955Z,16.87
2017-06-29T00:24:24.384Z,16.95
2017-06-29T00:24:28.816Z,16.84
2017-06-29T00:24:33.245Z,16.8
2017-06-29T00:24:37.554Z,16.84
2017-06-29T00:24:41.986Z,16.87
2017-06-29T00:24:46.416Z,16.82
2017-06-29T00:24:50.841Z,16.88
2017-06-29T00:24:55.265Z,16.8
2017-06-29T00:24:59.692Z,16.84
2017-06-29T00:25:03.765Z,16.87
2017-06-29T00:25:08.193Z,16.82
2017-06-29T00:25:12.615Z,16.81
2017-06-29T00:25:17.046Z,16.77
2017-06-29T00:25:21.471Z,16.77
2017-06-29T00:25:25.787Z,16.78
2017-06-29T00:25:30.268Z,16.9
2017-06-29T00:25:34.574Z,16.73
2017-06-29T00:25:38.998Z,16.78
2017-06-29T00:25:43.419Z,16.81
2017-06-29T00:25:47.730Z,16.81
2017-06-29T00:25:52.162Z,16.77
2017-06-29T00:25:56.588Z,16.73
2017-06-29T00:26:01.018Z,16.69
2017-06-29T00:26:05.796Z,16.72
2017-06-29T00:26:10.110Z,16.8
2017-06-29T00:26:14.529Z,16.73
2017-06-29T00:26:18.955Z,16.7
2017-06-29T00:26:23.392Z,16.72
2017-06-29T00:26:27.829Z,16.72
2017-06-29T00:26:32.141Z,16.72
2017-06-29T00:26:36.446Z,16.69
2017-06-29T00:26:40.875Z,16.7
2017-06-29T00:26:45.305Z,16.69
2017-06-29T00:26:49.738Z,16.67
2017-06-29T00:26:54.160Z,16.69
2017-06-29T00:26:58.593Z,16.72
2017-06-29T00:27:03.070Z,16.65
2017-06-29T00:27:07.419Z,16.62
2017-06-29T00:27:11.610Z,16.66
2017-06-29T00:27:16.038Z,16.65
2017-06-29T00:27:20.459Z,16.65
2017-06-29T00:27:24.891Z,16.69
2017-06-29T00:27:29.242Z,16.65
2017-06-29T00:27:33.669Z,16.66
2017-06-29T00:27:38.097Z,16.67
2017-06-29T00:27:42.407Z,16.65
2017-06-29T00:27:46.843Z,16.55
2017-06-29T00:27:51.278Z,16.6
2017-06-29T00:27:55.593Z,16.66
2017-06-29T00:28:00.021Z,16.62
2017-06-29T00:28:04.450Z,16.59
2017-06-29T00:28:08.647Z,16.62
2017-06-29T00:28:12.973Z,16.62
2017-06-29T00:28:17.401Z,16.67
2017-06-29T00:28:21.715Z,16.54
2017-06-29T00:28:25.905Z,16.55
2017-06-29T00:28:30.340Z,16.59
2017-06-29T00:28:34.771Z,16.63
2017-06-29T00:28:39.190Z,16.6
2017-06-29T00:28:43.611Z,16.59
2017-06-29T00:28:48.044Z,16.63
2017-06-29T00:28:52.509Z,16.52
2017-06-29T00:28:56.829Z,16.54
2017-06-29T00:29:01.261Z,16.57
2017-06-29T00:29:05.445Z,16.55
2017-06-29T00:29:09.876Z,16.54
2017-06-29T00:29:14.318Z,16.55
2017-06-29T00:29:18.749Z,16.52
2017-06-29T00:29:23.058Z,16.5
2017-06-29T00:29:27.495Z,16.47
2017-06-29T00:29:31.921Z,16.55
2017-06-29T00:29:36.346Z,16.55
2017-06-29T00:29:40.769Z,16.5
2017-06-29T00:29:45.196Z,16.57
2017-06-29T00:29:49.505Z,16.55
2017-06-29T00:29:53.927Z,16.44
2017-06-29T00:29:58.355Z,16.5
2017-06-29T00:30:02.667Z,16.44
2017-06-29T00:30:06.858Z,16.44
2017-06-29T00:30:11.298Z,16.42
2017-06-29T00:30:15.490Z,16.47
2017-06-29T00:30:19.831Z,16.48
2017-06-29T00:30:24.250Z,16.44
2017-06-29T00:30:28.674Z,16.44
2017-06-29T00:30:33.100Z,16.47
2017-06-29T00:30:37.538Z,16.41
2017-06-29T00:30:41.846Z,16.41
2017-06-29T00:30:46.275Z,16.48
2017-06-29T00:30:50.700Z,16.48
2017-06-29T00:30:55.125Z,16.47
2017-06-29T00:30:59.563Z,16.47
2017-06-29T00:31:03.990Z,16.48
2017-06-29T00:31:08.421Z,16.45
2017-06-29T00:31:12.867Z,16.47
2017-06-29T00:31:17.173Z,16.42
2017-06-29T00:31:21.602Z,16.48
2017-06-29T00:31:26.026Z,16.48
2017-06-29T00:31:30.452Z,16.34
2017-06-29T00:31:34.870Z,16.41
2017-06-29T00:31:39.299Z,16.45
2017-06-29T00:31:43.751Z,16.37
2017-06-29T00:31:48.056Z,16.36
2017-06-29T00:31:52.357Z,16.41
2017-06-29T00:31:56.781Z,16.4
2017-06-29T00:32:01.218Z,16.3
2017-06-29T00:32:05.410Z,16.32
2017-06-29T00:32:09.597Z,16.3
2017-06-29T00:32:14.045Z,16.32
2017-06-29T00:32:18.480Z,16.3
2017-06-29T00:32:22.914Z,16.37
2017-06-29T00:32:27.344Z,16.36
2017-06-29T00:32:31.764Z,16.37
2017-06-29T00:32:36.188Z,16.42
2017-06-29T00:32:40.618Z,16.34
2017-06-29T00:32:45.051Z,16.36
2017-06-29T00:32:49.474Z,16.41
2017-06-29T00:32:53.896Z,16.37
2017-06-29T00:32:58.204Z,16.37
2017-06-29T00:33:02.518Z,16.37
2017-06-29T00:33:06.708Z,16.34
2017-06-29T00:33:11.019Z,16.32
2017-06-29T00:33:15.323Z,16.4
2017-06-29T00:33:19.761Z,16.34
2017-06-29T00:33:24.190Z,16.41
2017-06-29T00:33:28.626Z,16.4
2017-06-29T00:33:33.057Z,16.4
2017-06-29T00:33:37.480Z,16.4
2017-06-29T00:33:41.798Z,16.32
2017-06-29T00:33:46.232Z,16.37
2017-06-29T00:33:50.659Z,16.33
2017-06-29T00:33:55.086Z,16.27
2017-06-29T00:33:59.396Z,16.29
2017-06-29T00:34:03.829Z,16.25
2017-06-29T00:34:08.132Z,16.3
2017-06-29T00:34:12.446Z,16.3
2017-06-29T00:34:16.881Z,16.34
2017-06-29T00:34:21.345Z,16.33
2017-06-29T00:34:25.783Z,16.34
2017-06-29T00:34:30.223Z,16.29
2017-06-29T00:34:34.648Z,16.23
2017-06-29T00:34:39.075Z,16.27
2017-06-29T00:34:43.508Z,16.29
2017-06-29T00:34:47.979Z,16.29
2017-06-29T00:34:52.407Z,16.27
2017-06-29T00:34:56.837Z,16.3
2017-06-29T00:35:01.153Z,16.32
2017-06-29T00:35:05.461Z,16.25
2017-06-29T00:35:09.651Z,16.36
2017-06-29T00:35:14.092Z,16.34
2017-06-29T00:35:18.398Z,16.3
2017-06-29T00:35:22.818Z,16.33
2017-06-29T00:35:27.250Z,16.32
2017-06-29T00:35:31.674Z,16.3
2017-06-29T00:35:36.103Z,16.34
2017-06-29T00:35:40.530Z,16.26
2017-06-29T00:35:44.849Z,16.23
2017-06-29T00:35:49.280Z,16.29
2017-06-29T00:35:53.708Z,16.17
2017-06-29T00:35:57.896Z,16.32
2017-06-29T00:36:02.321Z,16.18
2017-06-29T00:36:06.628Z,16.3
2017-06-29T00:36:10.947Z,16.26
2017-06-29T00:36:15.367Z,16.29
2017-06-29T00:36:19.788Z,16.36
2017-06-29T00:36:24.209Z,16.3
2017-06-29T00:36:28.528Z,16.26
2017-06-29T00:36:32.961Z,16.22
2017-06-29T00:36:37.385Z,16.26
2017-06-29T00:36:41.812Z,16.26
2017-06-29T00:36:46.238Z,16.27
2017-06-29T00:36:50.666Z,16.26
2017-06-29T00:36:55.089Z,16.17
2017-06-29T00:36:59.520Z,16.18
2017-06-29T00:37:03.942Z,16.17
2017-06-29T00:37:08.367Z,16.18
2017-06-29T00:37:12.796Z,16.16
2017-06-29T00:37:17.218Z,16.17
2017-06-29T00:37:21.639Z,16.25
2017-06-29T00:37:26.070Z,16.17
2017-06-29T00:37:30.491Z,16.22
2017-06-29T00:37:34.923Z,16.22
2017-06-29T00:37:39.349Z,16.16
2017-06-29T00:37:43.656Z,16.22
2017-06-29T00:37:48.076Z,16.16
2017-06-29T00:37:52.501Z,16.25
2017-06-29T00:37:56.842Z,16.16
2017-06-29T00:38:01.157Z,16.23
2017-06-29T00:38:05.633Z,16.14
2017-06-29T00:38:10.059Z,16.27
2017-06-29T00:38:14.373Z,16.14
2017-06-29T00:38:18.834Z,16.16
2017-06-29T00:38:23.256Z,16.13
2017-06-29T00:38:27.686Z,16.13
2017-06-29T00:38:32.113Z,16.33
2017-06-29T00:38:36.541Z,16.13
2017-06-29T00:38:40.852Z,16.22
2017-06-29T00:38:45.279Z,16.17
2017-06-29T00:38:49.704Z,16.25
2017-06-29T00:38:54.131Z,16.16
2017-06-29T00:38:58.564Z,16.26
2017-06-29T00:39:02.869Z,16.17
2017-06-29T00:39:07.299Z,16.17
2017-06-29T00:39:11.722Z,16.16
2017-06-29T00:39:16.070Z,16.27
2017-06-29T00:39:20.498Z,16.17
2017-06-29T00:39:24.922Z,16.14
2017-06-29T00:39:29.228Z,16.18
2017-06-29T00:39:33.652Z,16.13
2017-06-29T00:39:38.081Z,16.22
2017-06-29T00:39:42.506Z,16.22
2017-06-29T00:39:46.928Z,16.23
2017-06-29T00:39:51.232Z,16.16
2017-06-29T00:39:55.661Z,16.17
2017-06-29T00:39:59.976Z,16.13
2017-06-29T00:40:04.364Z,16.25
2017-06-29T00:40:08.789Z,16.14
2017-06-29T00:40:12.978Z,16.22
2017-06-29T00:40:17.292Z,16.14
2017-06-29T00:40:21.604Z,16.14
2017-06-29T00:40:25.792Z,16.22
2017-06-29T00:40:30.211Z,16.17
2017-06-29T00:40:34.631Z,16.17
2017-06-29T00:40:39.066Z,16.22
2017-06-29T00:40:43.505Z,16.16
2017-06-29T00:40:47.815Z,16.17
2017-06-29T00:40:52.240Z,16.25
2017-06-29T00:40:56.549Z,16.17
2017-06-29T00:41:00.863Z,16.18
2017-06-29T00:41:05.633Z,16.17
2017-06-29T00:41:09.945Z,16.18
2017-06-29T00:41:14.253Z,16.17
2017-06-29T00:41:18.570Z,16.22
2017-06-29T00:41:22.996Z,16.17
2017-06-29T00:41:27.418Z,16.16
2017-06-29T00:41:31.848Z,16.14
2017-06-29T00:41:36.278Z,16.17
2017-06-29T00:41:40.707Z,16.18
2017-06-29T00:41:45.129Z,16.16
2017-06-29T00:41:49.549Z,16.23
2017-06-29T00:41:53.855Z,16.13
2017-06-29T00:41:58.294Z,16.18
2017-06-29T00:42:02.983Z,16.11
2017-06-29T00:42:07.403Z,16.11
2017-06-29T00:42:11.592Z,16.17
2017-06-29T00:42:15.781Z,16.17
2017-06-29T00:42:20.216Z,16.14
2017-06-29T00:42:24.401Z,16.11
2017-06-29T00:42:28.825Z,16.13
2017-06-29T00:42:33.137Z,16.14
2017-06-29T00:42:37.561Z,16.18
2017-06-29T00:42:41.884Z,16.13
2017-06-29T00:42:46.316Z,16.17
2017-06-29T00:42:50.624Z,16.14
2017-06-29T00:42:54.937Z,16.11
2017-06-29T00:42:59.383Z,16.18
2017-06-29T00:43:03.819Z,16.13
2017-06-29T00:43:08.247Z,16.11
2017-06-29T00:43:12.704Z,16.22
2017-06-29T00:43:17.135Z,16.13
2017-06-29T00:43:21.459Z,16.11
2017-06-29T00:43:25.773Z,16.16
2017-06-29T00:43:30.197Z,16.16
2017-06-29T00:43:34.619Z,16.13
2017-06-29T00:43:39.059Z,16.13
2017-06-29T00:43:43.374Z,16.08
2017-06-29T00:43:47.800Z,16.16
2017-06-29T00:43:52.222Z,16.11
2017-06-29T00:43:56.648Z,16.16
2017-06-29T00:44:01.079Z,16.14
2017-06-29T00:44:05.271Z,16.13
2017-06-29T00:44:09.595Z,16.16
2017-06-29T00:44:14.030Z,16.13
2017-06-29T00:44:18.466Z,16.17
2017-06-29T00:44:22.907Z,16.14
2017-06-29T00:44:27.334Z,16.08
2017-06-29T00:44:31.754Z,16.13
2017-06-29T00:44:36.178Z,16.16
2017-06-29T00:44:40.616Z,16.13
2017-06-29T00:44:44.806Z,16.22
2017-06-29T00:44:49.232Z,16.14
2017-06-29T00:44:53.666Z,16.13
2017-06-29T00:44:58.109Z,16.13
2017-06-29T00:45:02.674Z,16.08
2017-06-29T00:45:06.983Z,16.14
2017-06-29T00:45:11.422Z,16.17
2017-06-29T00:45:15.725Z,16.18
2017-06-29T00:45:20.038Z,16.13
2017-06-29T00:45:24.351Z,16.14
2017-06-29T00:45:28.772Z,16.13
2017-06-29T00:45:33.198Z,16.1
2017-06-29T00:45:37.506Z,16.13
2017-06-29T00:45:41.855Z,16.17
2017-06-29T00:45:46.293Z,16.11
2017-06-29T00:45:50.717Z,16.13
2017-06-29T00:45:55.143Z,16.13
2017-06-29T00:45:59.577Z,16.14
2017-06-29T00:46:03.888Z,16.17
2017-06-29T00:46:08.313Z,16.13
2017-06-29T00:46:12.622Z,16.11
2017-06-29T00:46:17.047Z,16.14
2017-06-29T00:46:21.517Z,16.16
2017-06-29T00:46:25.945Z,16.1
2017-06-29T00:46:30.255Z,16.18
2017-06-29T00:46:34.682Z,16.11
2017-06-29T00:46:38.987Z,16.14
2017-06-29T00:46:43.313Z,16.11
2017-06-29T00:46:47.740Z,16.18
2017-06-29T00:46:52.160Z,16.13
2017-06-29T00:46:56.594Z,16.11
2017-06-29T00:47:01.038Z,16.11
2017-06-29T00:47:05.390Z,16.23
2017-06-29T00:47:09.700Z,16.13
2017-06-29T00:47:14.011Z,16.11
2017-06-29T00:47:18.436Z,16.11
2017-06-29T00:47:22.879Z,16.13
2017-06-29T00:47:27.303Z,16.08
2017-06-29T00:47:31.608Z,16.22
2017-06-29T00:47:36.029Z,16.17
2017-06-29T00:47:40.457Z,16.13
2017-06-29T00:47:44.764Z,16.17
2017-06-29T00:47:49.195Z,16.13
2017-06-29T00:47:53.633Z,16.25
2017-06-29T00:47:58.066Z,16.17
2017-06-29T00:48:02.502Z,16.16
2017-06-29T00:48:06.806Z,16.23
2017-06-29T00:48:11.242Z,16.22
2017-06-29T00:48:15.676Z,16.13
2017-06-29T00:48:20.112Z,16.14
2017-06-29T00:48:24.555Z,16.13
2017-06-29T00:48:28.759Z,16.17
2017-06-29T00:48:33.192Z,16.23
2017-06-29T00:48:37.615Z,16.17
2017-06-29T00:48:42.047Z,16.16
2017-06-29T00:48:46.527Z,16.14
2017-06-29T00:48:50.955Z,16.17
2017-06-29T00:48:55.380Z,16.18
2017-06-29T00:48:59.810Z,16.14
2017-06-29T00:49:04.498Z,16.16
2017-06-29T00:49:08.918Z,16.08
2017-06-29T00:49:13.344Z,16.13
2017-06-29T00:49:17.774Z,16.16
2017-06-29T00:49:22.210Z,16.13
2017-06-29T00:49:26.656Z,16.11
2017-06-29T00:49:30.970Z,16.16
2017-06-29T00:49:35.401Z,16.13
2017-06-29T00:49:39.831Z,16.17
2017-06-29T00:49:44.262Z,16.13
2017-06-29T00:49:48.687Z,16.11
2017-06-29T00:49:53.118Z,16.13
2017-06-29T00:49:57.439Z,16.16
2017-06-29T00:50:01.863Z,16.16
2017-06-29T00:50:06.304Z,16.16
2017-06-29T00:50:10.731Z,16.13
2017-06-29T00:50:15.158Z,16.17
2017-06-29T00:50:19.343Z,16.13
2017-06-29T00:50:23.533Z,16.11
2017-06-29T00:50:27.967Z,16.16
2017-06-29T00:50:32.385Z,16.14
2017-06-29T00:50:36.809Z,16.11
2017-06-29T00:50:41.239Z,16.13
2017-06-29T00:50:45.548Z,16.1
2017-06-29T00:50:50.010Z,16.16
2017-06-29T00:50:54.436Z,16.16
2017-06-29T00:50:58.743Z,16.14
2017-06-29T00:51:03.166Z,16.17
2017-06-29T00:51:07.596Z,16.16
2017-06-29T00:51:12.026Z,16.11
2017-06-29T00:51:16.325Z,16.18
2017-06-29T00:51:20.508Z,16.16
2017-06-29T00:51:24.938Z,16.14
2017-06-29T00:51:29.279Z,16.13
2017-06-29T00:51:33.584Z,16.13
2017-06-29T00:51:38.020Z,16.13
2017-06-29T00:51:42.450Z,16.17
2017-06-29T00:51:46.878Z,16.1
2017-06-29T00:51:51.309Z,16.17
2017-06-29T00:51:55.732Z,16.14
2017-06-29T00:52:00.164Z,16.11
2017-06-29T00:52:04.774Z,16.11
2017-06-29T00:52:09.083Z,16.13
2017-06-29T00:52:13.515Z,16.13
2017-06-29T00:52:17.707Z,16.08
2017-06-29T00:52:22.009Z,16.16
2017-06-29T00:52:26.430Z,16.1
2017-06-29T00:52:30.867Z,16.13
2017-06-29T00:52:35.288Z,16.08
2017-06-29T00:52:39.711Z,16.03
2017-06-29T00:52:43.898Z,15.99
2017-06-29T00:52:48.323Z,16.06
2017-06-29T00:52:52.777Z,16.1
2017-06-29T00:52:57.204Z,16.03
2017-06-29T00:53:01.624Z,16.06
2017-06-29T00:53:06.127Z,16.1
2017-06-29T00:53:10.438Z,16.14
2017-06-29T00:53:14.770Z,16.06
2017-06-29T00:53:19.078Z,16.07
2017-06-29T00:53:23.379Z,15.98
2017-06-29T00:53:27.710Z,16.04
2017-06-29T00:53:32.139Z,16.04
2017-06-29T00:53:36.566Z,16.06
2017-06-29T00:53:40.988Z,16.04
2017-06-29T00:53:45.407Z,16.03
2017-06-29T00:53:49.835Z,16.04
2017-06-29T00:53:54.297Z,16.04
2017-06-29T00:53:58.721Z,16.04
2017-06-29T00:54:03.145Z,16.04
2017-06-29T00:54:07.452Z,16.03
2017-06-29T00:54:11.642Z,16.06
2017-06-29T00:54:15.956Z,16.07
2017-06-29T00:54:20.387Z,16.01
2017-06-29T00:54:24.698Z,16.01
2017-06-29T00:54:29.139Z,16.01
2017-06-29T00:54:33.568Z,16.04
2017-06-29T00:54:37.904Z,16.04
2017-06-29T00:54:42.325Z,16.06
2017-06-29T00:54:46.762Z,16.06
2017-06-29T00:54:51.192Z,16.03
2017-06-29T00:54:55.626Z,16.04
2017-06-29T00:54:59.944Z,16.04
2017-06-29T00:55:04.131Z,16.07
2017-06-29T00:55:08.432Z,16.03
2017-06-29T00:55:12.629Z,16.03
2017-06-29T00:55:16.961Z,16.06
2017-06-29T00:55:21.396Z,16.04
2017-06-29T00:55:25.705Z,16.01
2017-06-29T00:55:30.132Z,16.01
2017-06-29T00:55:34.556Z,16.01
2017-06-29T00:55:38.747Z,16.06
2017-06-29T00:55:43.069Z,16.03
2017-06-29T00:55:47.489Z,15.98
2017-06-29T00:55:51.796Z,15.99
2017-06-29T00:55:55.981Z,15.98
2017-06-29T00:56:00.418Z,15.98
2017-06-29T00:56:04.840Z,15.99
2017-06-29T00:56:09.272Z,16.01
2017-06-29T00:56:13.706Z,16.07
2017-06-29T00:56:18.141Z,15.99
2017-06-29T00:56:22.572Z,15.96
2017-06-29T00:56:26.996Z,16.01
2017-06-29T00:56:31.418Z,16.03
2017-06-29T00:56:35.835Z,16.04
2017-06-29T00:56:40.262Z,16.04
2017-06-29T00:56:44.701Z,16.08